createdAt,value
2022-11-16T00:02:12.402Z,4.90
2022-11-16T00:04:39.844Z,4.90
2022-11-16T00:07:07.525Z,5.00
2022-11-16T00:09:35.770Z,5.00
2022-11-16T00:12:06.214Z,4.90
2022-11-16T00:14:35.325Z,4.90
2022-11-16T00:17:03.712Z,5.00
2022-11-16T00:19:31.571Z,4.90
2022-11-16T00:21:59.034Z,4.90
2022-11-16T00:24:26.516Z,4.80
2022-11-16T00:26:55.301Z,4.90
2022-11-16T00:29:24.972Z,4.80
2022-11-16T00:31:53.765Z,4.80
2022-11-16T00:34:22.517Z,4.80
2022-11-16T00:36:50.387Z,4.90
2022-11-16T00:39:18.591Z,4.80
2022-11-16T00:41:47.444Z,4.80
2022-11-16T00:44:15.154Z,4.80
2022-11-16T00:46:43.186Z,4.90
2022-11-16T00:49:10.725Z,4.90
2022-11-16T00:51:38.882Z,5.00
2022-11-16T00:54:08.401Z,5.00
2022-11-16T00:56:37.429Z,4.90
2022-11-16T00:59:06.207Z,4.90
2022-11-16T01:01:34.019Z,4.90
2022-11-16T01:04:01.515Z,4.90
2022-11-16T01:06:28.994Z,5.00
2022-11-16T01:08:56.551Z,5.00
2022-11-16T01:11:43.010Z,5.10
2022-11-16T01:14:10.705Z,5.20
2022-11-16T01:16:38.088Z,5.20
2022-11-16T01:19:06.231Z,5.20
2022-11-16T01:21:34.094Z,5.20
2022-11-16T01:24:02.178Z,5.20
2022-11-16T01:26:29.936Z,5.10
2022-11-16T01:28:59.178Z,5.00
2022-11-16T01:31:29.092Z,5.00
2022-11-16T01:33:57.887Z,5.10
2022-11-16T01:36:28.290Z,5.10
2022-11-16T01:38:57.821Z,5.00
2022-11-16T01:41:28.600Z,5.00
2022-11-16T01:44:05.086Z,5.00
2022-11-16T01:46:47.797Z,5.10
2022-11-16T01:49:20.485Z,5.00
2022-11-16T01:51:53.445Z,4.90
2022-11-16T01:54:21.116Z,4.90
2022-11-16T01:57:00.669Z,5.00
2022-11-16T01:59:41.504Z,5.00
2022-11-16T02:02:16.001Z,5.00
2022-11-16T02:04:45.536Z,5.10
2022-11-16T02:08:04.638Z,5.00
2022-11-16T02:11:21.046Z,5.10
2022-11-16T02:14:33.511Z,5.00
2022-11-16T02:17:33.751Z,4.90
2022-11-16T02:20:44.808Z,4.90
2022-11-16T02:23:26.812Z,4.90
2022-11-16T02:26:19.053Z,5.00
2022-11-16T02:29:30.322Z,5.00
2022-11-16T02:32:35.581Z,5.00
2022-11-16T02:35:19.437Z,5.00
2022-11-16T02:37:54.404Z,5.00
2022-11-16T02:40:26.451Z,5.10
2022-11-16T02:43:01.127Z,5.30
2022-11-16T02:45:33.207Z,5.20
2022-11-16T02:48:06.026Z,5.20
2022-11-16T02:50:35.443Z,5.20
2022-11-16T02:53:03.660Z,5.10
2022-11-16T02:55:36.212Z,5.10
2022-11-16T02:58:07.150Z,5.10
2022-11-16T03:01:03.477Z,5.00
2022-11-16T03:03:57.082Z,5.00
2022-11-16T03:06:32.288Z,5.10
2022-11-16T03:09:10.927Z,5.30
2022-11-16T03:12:02.423Z,5.30
2022-11-16T03:14:46.177Z,5.40
2022-11-16T03:17:40.350Z,5.60
2022-11-16T03:20:12.768Z,5.60
2022-11-16T03:22:47.186Z,5.50
2022-11-16T03:25:20.834Z,5.50
2022-11-16T03:28:12.202Z,5.40
2022-11-16T03:31:12.790Z,5.50
2022-11-16T03:33:47.619Z,5.60
2022-11-16T03:36:29.644Z,5.70
2022-11-16T03:39:02.546Z,5.80
2022-11-16T03:41:33.242Z,5.80
2022-11-16T03:44:01.761Z,6.00
2022-11-16T03:46:29.432Z,6.10
2022-11-16T03:49:01.120Z,6.20
2022-11-16T03:51:32.905Z,6.30
2022-11-16T03:54:00.445Z,6.30
2022-11-16T03:56:28.407Z,6.40
2022-11-16T03:58:55.796Z,6.40
2022-11-16T04:01:23.395Z,6.50
2022-11-16T04:03:50.920Z,6.50
2022-11-16T04:06:38.710Z,6.50
2022-11-16T04:09:24.721Z,6.60
2022-11-16T04:12:11.147Z,6.60
2022-11-16T04:14:58.166Z,6.60
2022-11-16T04:17:46.995Z,6.60
2022-11-16T04:20:34.240Z,6.60
2022-11-16T04:23:24.361Z,6.60
2022-11-16T04:25:52.718Z,6.60
2022-11-16T04:28:24.079Z,6.50
2022-11-16T04:31:16.777Z,6.50
2022-11-16T04:34:11.410Z,6.50
2022-11-16T04:37:02.824Z,6.50
2022-11-16T04:39:31.102Z,6.50
2022-11-16T04:42:17.260Z,6.50
2022-11-16T04:45:05.363Z,6.50
2022-11-16T04:47:49.662Z,6.40
2022-11-16T04:50:19.231Z,6.40
2022-11-16T04:52:46.943Z,6.50
2022-11-16T04:55:15.794Z,6.40
2022-11-16T04:57:45.449Z,6.40
2022-11-16T05:00:18.866Z,6.50
2022-11-16T05:02:46.811Z,6.50
2022-11-16T05:05:14.986Z,6.50
2022-11-16T05:07:44.381Z,6.50
2022-11-16T05:10:18.941Z,6.50
2022-11-16T05:12:46.282Z,6.60
2022-11-16T05:15:14.353Z,6.60
2022-11-16T05:17:41.750Z,6.60
2022-11-16T05:20:35.082Z,6.60
2022-11-16T05:23:04.939Z,6.70
2022-11-16T05:25:37.181Z,6.70
2022-11-16T05:28:07.745Z,6.70
2022-11-16T05:30:39.396Z,6.70
2022-11-16T05:33:06.832Z,6.70
2022-11-16T05:35:38.729Z,6.70
2022-11-16T05:38:06.897Z,6.70
2022-11-16T05:40:39.263Z,6.70
2022-11-16T05:43:06.778Z,6.60
2022-11-16T05:45:39.849Z,6.60
2022-11-16T05:48:09.113Z,6.70
2022-11-16T05:50:42.297Z,6.70
2022-11-16T05:53:20.288Z,6.70
2022-11-16T05:55:48.767Z,6.70
2022-11-16T05:58:16.696Z,6.70
2022-11-16T06:00:47.345Z,6.60
2022-11-16T06:03:16.267Z,6.60
2022-11-16T06:05:43.724Z,6.60
2022-11-16T06:08:13.882Z,6.50
2022-11-16T06:10:41.981Z,6.50
2022-11-16T06:13:09.287Z,6.50
2022-11-16T06:15:40.680Z,6.60
2022-11-16T06:18:09.827Z,6.60
2022-11-16T06:20:39.300Z,6.60
2022-11-16T06:23:07.750Z,6.60
2022-11-16T06:25:38.721Z,6.70
2022-11-16T06:28:08.085Z,6.70
2022-11-16T06:30:36.736Z,6.70
2022-11-16T06:33:05.664Z,6.70
2022-11-16T06:35:33.599Z,6.70
2022-11-16T06:38:01.589Z,6.70
2022-11-16T06:40:29.460Z,6.80
2022-11-16T06:42:57.341Z,6.80
2022-11-16T06:45:25.890Z,6.80
2022-11-16T06:47:56.531Z,6.70
2022-11-16T06:50:24.550Z,6.70
2022-11-16T06:52:52.689Z,6.70
2022-11-16T06:55:20.790Z,6.70
2022-11-16T06:57:48.720Z,6.70
2022-11-16T07:00:17.541Z,6.60
2022-11-16T07:02:46.359Z,6.60
2022-11-16T07:05:17.787Z,6.50
2022-11-16T07:07:46.926Z,6.60
2022-11-16T07:10:14.795Z,6.50
2022-11-16T07:12:43.292Z,6.50
2022-11-16T07:15:11.229Z,6.60
2022-11-16T07:17:42.587Z,6.60
2022-11-16T07:20:12.167Z,6.60
2022-11-16T07:22:40.514Z,6.70
2022-11-16T07:25:11.602Z,6.70
2022-11-16T07:27:39.154Z,6.70
2022-11-16T07:30:07.572Z,6.80
2022-11-16T07:32:49.488Z,6.90
2022-11-16T07:35:31.583Z,6.90
2022-11-16T07:37:59.083Z,7.00
2022-11-16T07:40:26.451Z,7.00
2022-11-16T07:42:57.190Z,7.00
2022-11-16T07:45:24.493Z,7.10
2022-11-16T07:47:58.314Z,7.10
2022-11-16T07:50:45.621Z,7.10
2022-11-16T07:53:13.227Z,7.10
2022-11-16T07:55:40.743Z,7.20
2022-11-16T07:58:09.446Z,7.20
2022-11-16T08:00:36.880Z,7.20
2022-11-16T08:03:13.688Z,7.20
2022-11-16T08:05:41.585Z,7.30
2022-11-16T08:08:09.006Z,7.30
2022-11-16T08:10:38.331Z,7.30
2022-11-16T08:13:06.244Z,7.30
2022-11-16T08:15:34.606Z,7.20
2022-11-16T08:18:05.309Z,7.20
2022-11-16T08:20:34.879Z,7.20
2022-11-16T08:23:02.640Z,7.20
2022-11-16T08:25:33.983Z,7.20
2022-11-16T08:28:02.091Z,7.30
2022-11-16T08:30:30.584Z,7.30
2022-11-16T08:32:58.999Z,7.40
2022-11-16T08:35:26.350Z,7.40
2022-11-16T08:37:53.766Z,7.50
2022-11-16T08:40:21.293Z,7.50
2022-11-16T08:42:48.927Z,7.60
2022-11-16T08:45:17.803Z,7.60
2022-11-16T08:47:45.881Z,7.60
2022-11-16T08:50:13.261Z,7.80
2022-11-16T08:52:40.698Z,7.80
2022-11-16T08:55:09.054Z,7.80
2022-11-16T08:57:37.963Z,7.90
2022-11-16T09:00:11.371Z,8.00
2022-11-16T09:02:39.113Z,8.10
2022-11-16T09:05:08.048Z,8.20
2022-11-16T09:07:35.523Z,8.10
2022-11-16T09:10:03.139Z,8.10
2022-11-16T09:12:30.513Z,8.10
2022-11-16T09:14:57.806Z,8.20
2022-11-16T09:17:25.273Z,8.20
2022-11-16T09:19:52.628Z,8.20
2022-11-16T09:22:20.150Z,8.30
2022-11-16T09:24:47.511Z,8.40
2022-11-16T09:27:15.135Z,8.40
2022-11-16T09:29:42.905Z,8.40
2022-11-16T09:32:10.280Z,8.40
2022-11-16T09:34:37.648Z,8.40
2022-11-16T09:37:05.069Z,8.50
2022-11-16T09:39:32.983Z,8.50
2022-11-16T09:42:42.291Z,8.40
2022-11-16T09:45:20.851Z,8.40
2022-11-16T09:47:59.427Z,8.40
2022-11-16T09:50:56.500Z,8.50
2022-11-16T09:53:42.325Z,8.50
2022-11-16T09:56:22.072Z,8.60
2022-11-16T09:59:04.183Z,8.60
2022-11-16T10:01:46.857Z,8.50
2022-11-16T10:04:43.910Z,8.50
2022-11-16T10:07:29.189Z,8.50
2022-11-16T10:09:57.078Z,8.40
2022-11-16T10:12:46.321Z,8.40
2022-11-16T10:15:41.903Z,8.50
2022-11-16T10:18:24.364Z,8.60
2022-11-16T10:21:13.457Z,8.70
2022-11-16T10:24:21.786Z,8.70
2022-11-16T10:27:25.397Z,8.70
2022-11-16T10:30:08.444Z,8.70
2022-11-16T10:32:53.719Z,8.70
2022-11-16T10:35:29.916Z,8.80
2022-11-16T10:37:59.987Z,8.80
2022-11-16T10:40:35.839Z,8.80
2022-11-16T10:43:17.914Z,8.80
2022-11-16T10:46:12.690Z,8.80
2022-11-16T10:49:19.527Z,8.80
2022-11-16T10:51:46.881Z,8.80
2022-11-16T10:54:15.618Z,8.90
2022-11-16T10:56:45.584Z,8.80
2022-11-16T10:59:15.049Z,8.80
2022-11-16T11:01:47.618Z,8.80
2022-11-16T11:04:26.164Z,8.70
2022-11-16T11:06:56.391Z,8.80
2022-11-16T11:09:38.343Z,8.90
2022-11-16T11:12:38.677Z,9.00
2022-11-16T11:15:27.387Z,8.90
2022-11-16T11:18:12.722Z,8.90
2022-11-16T11:20:45.058Z,9.00
2022-11-16T11:23:20.348Z,9.00
2022-11-16T11:25:53.920Z,8.90
2022-11-16T11:28:32.787Z,8.90
2022-11-16T11:31:25.701Z,8.90
2022-11-16T11:34:00.689Z,8.90
2022-11-16T11:36:47.442Z,9.00
2022-11-16T11:39:36.529Z,9.00
2022-11-16T11:42:30.647Z,8.90
2022-11-16T11:45:06.852Z,8.90
2022-11-16T11:47:59.126Z,9.00
2022-11-16T11:50:49.781Z,8.90
2022-11-16T11:53:43.002Z,8.90
2022-11-16T11:56:12.217Z,9.00
2022-11-16T11:58:41.163Z,9.10
2022-11-16T12:01:48.449Z,9.20
2022-11-16T12:04:49.178Z,9.30
2022-11-16T12:07:24.225Z,9.40
2022-11-16T12:10:31.898Z,9.40
2022-11-16T12:13:24.038Z,9.50
2022-11-16T12:16:23.670Z,9.50
2022-11-16T12:19:24.304Z,9.40
2022-11-16T12:22:40.528Z,9.50
2022-11-16T12:25:49.942Z,9.50
2022-11-16T13:04:19.903Z,9.60
2022-11-16T13:07:10.504Z,9.50
2022-11-16T13:09:49.187Z,9.40
2022-11-16T13:12:23.310Z,9.30
2022-11-16T13:14:56.219Z,9.20
2022-11-16T13:17:33.370Z,9.20
2022-11-16T13:20:28.024Z,9.20
2022-11-16T13:23:07.447Z,9.20
2022-11-16T13:25:48.062Z,9.10
2022-11-16T13:28:35.895Z,9.10
2022-11-16T13:31:26.368Z,9.00
2022-11-16T13:33:59.268Z,8.90
2022-11-16T13:36:53.096Z,8.90
2022-11-16T13:39:23.172Z,8.80
2022-11-16T13:42:13.459Z,8.90
2022-11-16T13:44:40.964Z,8.80
2022-11-16T13:47:23.941Z,8.70
2022-11-16T13:49:54.495Z,8.70
2022-11-16T13:52:24.766Z,8.60
2022-11-16T13:55:01.749Z,8.50
2022-11-16T13:57:33.811Z,8.40
2022-11-16T14:00:11.290Z,8.30
2022-11-16T14:02:40.610Z,8.30
2022-11-16T14:05:33.877Z,8.30
2022-11-16T14:08:47.343Z,8.20
2022-11-16T14:11:38.804Z,8.20
2022-11-16T14:14:10.855Z,8.20
2022-11-16T14:16:51.228Z,8.10
2022-11-16T14:19:57.366Z,8.10
2022-11-16T14:22:55.102Z,8.10
2022-11-16T14:25:51.173Z,8.10
2022-11-16T14:28:38.164Z,8.10
2022-11-16T14:31:28.038Z,8.10
2022-11-16T14:33:58.872Z,8.00
2022-11-16T14:36:45.702Z,8.00
2022-11-16T14:39:29.482Z,7.80
2022-11-16T14:42:02.266Z,7.80
2022-11-16T14:44:33.749Z,7.70
2022-11-16T14:47:02.756Z,7.60
2022-11-16T14:49:33.638Z,7.60
2022-11-16T14:52:03.187Z,7.60
2022-11-16T14:54:55.050Z,7.50
2022-11-16T14:57:24.022Z,7.50
2022-11-16T15:00:11.785Z,7.50
2022-11-16T15:02:40.395Z,7.50
2022-11-16T15:05:14.354Z,7.40
2022-11-16T15:07:43.091Z,7.30
2022-11-16T15:10:19.517Z,7.30
2022-11-16T15:12:51.715Z,7.30
2022-11-16T15:15:24.261Z,7.30
2022-11-16T15:18:22.252Z,7.20
2022-11-16T15:20:51.854Z,7.20
2022-11-16T15:23:20.491Z,7.20
2022-11-16T15:25:56.585Z,7.10
2022-11-16T15:28:33.292Z,7.10
2022-11-16T15:31:05.663Z,7.10
2022-11-16T15:33:39.186Z,7.10
2022-11-16T15:36:33.270Z,7.10
2022-11-16T15:39:02.384Z,7.00
2022-11-16T15:41:29.729Z,7.00
2022-11-16T15:44:13.932Z,7.10
2022-11-16T15:46:45.585Z,7.00
2022-11-16T15:49:33.504Z,7.00
2022-11-16T15:52:01.871Z,7.00
2022-11-16T15:54:51.620Z,6.90
2022-11-16T15:57:20.797Z,6.90
2022-11-16T15:59:56.075Z,6.90
2022-11-16T16:02:29.063Z,6.90
2022-11-16T16:04:56.764Z,6.90
2022-11-16T16:07:41.623Z,6.90
2022-11-16T16:10:23.954Z,6.90
2022-11-16T16:12:52.326Z,6.90
2022-11-16T16:15:23.108Z,6.90
2022-11-16T16:17:51.141Z,6.90
2022-11-16T16:20:21.957Z,6.90
2022-11-16T16:22:49.469Z,6.90
2022-11-16T16:25:34.323Z,6.80
2022-11-16T16:28:02.016Z,6.80
2022-11-16T16:30:30.797Z,6.90
2022-11-16T16:32:58.200Z,6.80
2022-11-16T16:35:26.145Z,6.80
2022-11-16T16:38:01.374Z,6.80
2022-11-16T16:40:29.666Z,6.80
2022-11-16T16:42:58.099Z,6.80
2022-11-16T16:45:37.215Z,6.80
2022-11-16T16:48:05.507Z,6.80
2022-11-16T16:50:32.796Z,6.70
2022-11-16T16:53:00.382Z,6.70
2022-11-16T16:55:28.371Z,6.70
2022-11-16T16:57:59.472Z,6.70
2022-11-16T17:00:27.186Z,6.70
2022-11-16T17:02:54.738Z,6.70
2022-11-16T17:05:22.166Z,6.70
2022-11-16T17:07:49.566Z,6.70
2022-11-16T17:10:17.675Z,6.70
2022-11-16T17:12:45.100Z,6.70
2022-11-16T17:15:17.966Z,6.70
2022-11-16T17:17:46.754Z,6.70
2022-11-16T17:20:14.754Z,6.70
2022-11-16T17:22:42.637Z,6.70
2022-11-16T17:25:10.835Z,6.70
2022-11-16T17:27:38.256Z,6.70
2022-11-16T17:30:06.301Z,6.70
2022-11-16T17:32:33.667Z,6.70
2022-11-16T17:35:00.976Z,6.70
2022-11-16T17:37:28.395Z,6.60
2022-11-16T17:39:55.867Z,6.70
2022-11-16T17:42:23.359Z,6.70
2022-11-16T17:44:50.797Z,6.70
2022-11-16T17:47:18.141Z,6.70
2022-11-16T17:49:46.415Z,6.70
2022-11-16T17:52:13.835Z,6.60
2022-11-16T17:54:41.189Z,6.60
2022-11-16T17:57:08.847Z,6.60
2022-11-16T17:59:36.207Z,6.60
2022-11-16T18:02:03.626Z,6.60
2022-11-16T18:04:31.173Z,6.60
2022-11-16T18:07:00.650Z,6.60
2022-11-16T18:09:28.101Z,6.60
2022-11-16T18:11:55.450Z,6.60
2022-11-16T18:14:22.999Z,6.60
2022-11-16T18:16:50.331Z,6.60
2022-11-16T18:19:18.870Z,6.50
2022-11-16T18:21:46.874Z,6.50
2022-11-16T18:24:14.599Z,6.50
2022-11-16T18:26:42.264Z,6.40
2022-11-16T18:29:12.830Z,6.40
2022-11-16T18:31:40.594Z,6.40
2022-11-16T18:34:08.318Z,6.30
2022-11-16T18:36:35.695Z,6.30
2022-11-16T18:39:03.097Z,6.30
2022-11-16T18:41:30.574Z,6.30
2022-11-16T18:44:00.462Z,6.20
2022-11-16T18:46:32.706Z,6.20
2022-11-16T18:49:00.468Z,6.10
2022-11-16T18:51:28.878Z,6.10
2022-11-16T18:53:56.906Z,6.10
2022-11-16T18:56:25.091Z,6.10
2022-11-16T18:58:53.353Z,6.00
2022-11-16T19:01:24.316Z,6.00
2022-11-16T19:03:53.423Z,6.00
2022-11-16T19:06:21.781Z,5.90
2022-11-16T19:08:59.399Z,5.90
2022-11-16T19:11:28.145Z,5.90
2022-11-16T19:14:00.653Z,5.90
2022-11-16T19:16:28.088Z,5.80
2022-11-16T19:18:55.565Z,5.80
2022-11-16T19:21:23.379Z,5.80
2022-11-16T19:23:52.570Z,5.70
2022-11-16T19:26:22.720Z,5.70
2022-11-16T19:28:51.374Z,5.70
2022-11-16T19:31:27.548Z,5.70
2022-11-16T19:34:02.346Z,5.70
2022-11-16T19:36:30.632Z,5.70
2022-11-16T19:38:58.481Z,5.70
2022-11-16T19:41:27.268Z,5.70
2022-11-16T19:43:59.121Z,5.60
2022-11-16T19:46:28.567Z,5.60
2022-11-16T19:48:56.960Z,5.60
2022-11-16T19:51:27.096Z,5.60
2022-11-16T19:53:55.486Z,5.60
2022-11-16T19:56:24.112Z,5.60
2022-11-16T19:58:51.902Z,5.60
2022-11-16T20:01:29.196Z,5.50
2022-11-16T20:03:59.133Z,5.60
2022-11-16T20:06:29.315Z,5.50
2022-11-16T20:09:00.839Z,5.50
2022-11-16T20:11:33.788Z,5.50
2022-11-16T20:14:03.385Z,5.50
2022-11-16T20:16:38.369Z,5.50
2022-11-16T20:19:10.192Z,5.40
2022-11-16T20:21:40.123Z,5.40
2022-11-16T20:24:10.693Z,5.40
2022-11-16T20:26:42.998Z,5.40
2022-11-16T20:29:12.253Z,5.40
2022-11-16T20:31:42.585Z,5.40
2022-11-16T20:34:14.271Z,5.40
2022-11-16T20:36:43.741Z,5.40
2022-11-16T20:39:16.222Z,5.40
2022-11-16T20:41:44.131Z,5.40
2022-11-16T20:44:16.686Z,5.40
2022-11-16T20:46:45.233Z,5.40
2022-11-16T20:49:13.063Z,5.40
2022-11-16T20:51:40.602Z,5.40
2022-11-16T20:54:08.105Z,5.40
2022-11-16T20:56:35.554Z,5.30
2022-11-16T20:59:03.058Z,5.40
2022-11-16T21:01:33.131Z,5.30
2022-11-16T21:04:04.366Z,5.30
2022-11-16T21:06:33.047Z,5.40
2022-11-16T21:09:00.556Z,5.30
2022-11-16T21:11:30.565Z,5.30
2022-11-16T21:14:16.400Z,5.30
2022-11-16T21:16:44.034Z,5.30
2022-11-16T21:19:12.573Z,5.30
2022-11-16T21:21:40.926Z,5.30
2022-11-16T21:24:09.296Z,5.30
2022-11-16T21:26:37.303Z,5.20
2022-11-16T21:29:05.460Z,5.20
2022-11-16T21:31:36.172Z,5.20
2022-11-16T21:34:04.757Z,5.20
2022-11-16T21:36:32.814Z,5.20
2022-11-16T21:39:00.574Z,5.20
2022-11-16T21:41:28.005Z,5.20
2022-11-16T21:43:55.856Z,5.20
2022-11-16T21:46:25.999Z,5.20
2022-11-16T21:48:56.635Z,5.20
2022-11-16T21:51:26.413Z,5.20
2022-11-16T21:53:54.582Z,5.10
2022-11-16T21:56:24.315Z,5.20
2022-11-16T21:58:53.258Z,5.10
2022-11-16T22:01:21.200Z,5.10
2022-11-16T22:04:08.961Z,5.10
2022-11-16T22:06:54.855Z,5.10
2022-11-16T22:09:22.359Z,5.10
2022-11-16T22:11:50.189Z,5.00
2022-11-16T22:14:17.534Z,5.10
2022-11-16T22:16:44.854Z,5.00
2022-11-16T22:19:12.301Z,5.10
2022-11-16T22:21:39.631Z,5.00
2022-11-16T22:24:07.623Z,5.00
2022-11-16T22:26:35.108Z,5.00
2022-11-16T22:29:02.569Z,5.00
2022-11-16T22:31:29.972Z,5.00
2022-11-16T22:33:57.413Z,5.00
2022-11-16T22:36:24.899Z,5.00
2022-11-16T22:38:52.364Z,5.00
2022-11-16T22:41:20.839Z,4.90
2022-11-16T22:43:48.209Z,4.90
2022-11-16T22:46:15.526Z,5.00
2022-11-16T22:48:43.801Z,5.00
2022-11-16T22:51:25.674Z,5.00
2022-11-16T22:53:58.087Z,4.90
2022-11-16T22:56:26.447Z,4.90
2022-11-16T22:58:54.420Z,4.90
2022-11-16T23:01:22.269Z,4.90
2022-11-16T23:03:50.204Z,4.90
2022-11-16T23:06:18.001Z,4.90
2022-11-16T23:08:45.334Z,4.90
2022-11-16T23:11:37.377Z,4.90
2022-11-16T23:14:24.778Z,4.90
2022-11-16T23:16:52.549Z,4.80
2022-11-16T23:19:39.530Z,4.80
2022-11-16T23:22:26.475Z,4.80
2022-11-16T23:25:12.271Z,4.80
2022-11-16T23:27:45.047Z,4.80
2022-11-16T23:30:13.554Z,4.80
2022-11-16T23:32:41.831Z,4.80
2022-11-16T23:35:10.302Z,4.70
2022-11-16T23:38:05.396Z,4.70
2022-11-16T23:40:38.725Z,4.70
2022-11-16T23:43:26.033Z,4.70
2022-11-16T23:45:53.345Z,4.70
2022-11-16T23:48:20.809Z,4.70
2022-11-16T23:50:48.206Z,4.70
2022-11-16T23:53:15.604Z,4.70
2022-11-16T23:55:42.962Z,4.70
2022-11-16T23:58:13.929Z,4.70
